sensor_id;sensor_type;location;lat;lon;timestamp;P1;durP1;ratioP1;P2;durP2;ratioP2
63782;SDS011;49925;52.522;5.732;2024-01-07T00:00:52;23.75;;;13.00;;
63782;SDS011;49925;52.522;5.732;2024-01-07T00:03:19;25.75;;;13.10;;
63782;SDS011;49925;52.522;5.732;2024-01-07T02:35:59;36.35;;;14.90;;
63782;SDS011;49925;52.522;5.732;2024-01-07T02:38:26;31.13;;;15.02;;
63782;SDS011;49925;52.522;5.732;2024-01-07T02:40:53;26.02;;;13.82;;
63782;SDS011;49925;52.522;5.732;2024-01-07T02:43:20;30.27;;;13.70;;
63782;SDS011;49925;52.522;5.732;2024-01-07T02:45:48;26.23;;;13.40;;
63782;SDS011;49925;52.522;5.732;2024-01-07T02:48:15;24.10;;;12.70;;
63782;SDS011;49925;52.522;5.732;2024-01-07T02:50:42;26.52;;;13.05;;
63782;SDS011;49925;52.522;5.732;2024-01-07T02:53:10;27.65;;;12.90;;
63782;SDS011;49925;52.522;5.732;2024-01-07T02:55:38;24.55;;;12.70;;
63782;SDS011;49925;52.522;5.732;2024-01-07T02:58:05;33.40;;;13.40;;
63782;SDS011;49925;52.522;5.732;2024-01-07T03:00:32;23.30;;;12.25;;
63782;SDS011;49925;52.522;5.732;2024-01-07T03:03:00;26.55;;;13.05;;
63782;SDS011;49925;52.522;5.732;2024-01-07T03:05:27;22.85;;;11.82;;
63782;SDS011;49925;52.522;5.732;2024-01-07T03:07:59;22.92;;;12.07;;
63782;SDS011;49925;52.522;5.732;2024-01-07T03:10:26;24.13;;;11.85;;
63782;SDS011;49925;52.522;5.732;2024-01-07T03:12:53;27.52;;;12.50;;
63782;SDS011;49925;52.522;5.732;2024-01-07T03:15:21;24.50;;;12.50;;
63782;SDS011;49925;52.522;5.732;2024-01-07T03:17:48;24.85;;;12.45;;
63782;SDS011;49925;52.522;5.732;2024-01-07T05:23:11;21.90;;;11.43;;
63782;SDS011;49925;52.522;5.732;2024-01-07T05:25:39;19.88;;;10.55;;
63782;SDS011;49925;52.522;5.732;2024-01-07T05:28:08;22.25;;;10.98;;
63782;SDS011;49925;52.522;5.732;2024-01-07T05:30:35;21.38;;;11.20;;
63782;SDS011;49925;52.522;5.732;2024-01-07T05:33:03;20.17;;;10.40;;
63782;SDS011;49925;52.522;5.732;2024-01-07T05:35:30;20.75;;;9.48;;
63782;SDS011;49925;52.522;5.732;2024-01-07T05:37:58;16.50;;;9.07;;
63782;SDS011;49925;52.522;5.732;2024-01-07T05:40:25;18.17;;;9.50;;
63782;SDS011;49925;52.522;5.732;2024-01-07T05:42:52;22.85;;;10.00;;
63782;SDS011;49925;52.522;5.732;2024-01-07T05:45:19;23.38;;;10.30;;
63782;SDS011;49925;52.522;5.732;2024-01-07T05:47:46;21.63;;;10.30;;
63782;SDS011;49925;52.522;5.732;2024-01-07T05:50:14;23.50;;;9.80;;
63782;SDS011;49925;52.522;5.732;2024-01-07T05:52:42;25.58;;;9.80;;
63782;SDS011;49925;52.522;5.732;2024-01-07T05:55:10;19.65;;;10.30;;
63782;SDS011;49925;52.522;5.732;2024-01-07T05:57:38;18.77;;;9.60;;
63782;SDS011;49925;52.522;5.732;2024-01-07T06:00:06;18.20;;;8.77;;
63782;SDS011;49925;52.522;5.732;2024-01-07T06:02:34;22.42;;;9.40;;
63782;SDS011;49925;52.522;5.732;2024-01-07T06:05:02;21.27;;;9.48;;
63782;SDS011;49925;52.522;5.732;2024-01-07T06:07:29;20.15;;;9.77;;
63782;SDS011;49925;52.522;5.732;2024-01-07T06:09:57;17.95;;;9.18;;
63782;SDS011;49925;52.522;5.732;2024-01-07T06:12:25;21.90;;;10.18;;
63782;SDS011;49925;52.522;5.732;2024-01-07T06:14:53;17.77;;;9.57;;
63782;SDS011;49925;52.522;5.732;2024-01-07T06:17:20;17.65;;;9.88;;
63782;SDS011;49925;52.522;5.732;2024-01-07T06:19:47;20.90;;;9.25;;
63782;SDS011;49925;52.522;5.732;2024-01-07T06:22:14;17.08;;;9.15;;
63782;SDS011;49925;52.522;5.732;2024-01-07T06:24:42;22.20;;;9.80;;
63782;SDS011;49925;52.522;5.732;2024-01-07T06:27:10;20.38;;;9.38;;
63782;SDS011;49925;52.522;5.732;2024-01-07T06:29:37;18.63;;;9.50;;
63782;SDS011;49925;52.522;5.732;2024-01-07T06:32:04;17.88;;;9.05;;
63782;SDS011;49925;52.522;5.732;2024-01-07T06:34:31;19.20;;;10.15;;
63782;SDS011;49925;52.522;5.732;2024-01-07T06:37:00;18.58;;;9.10;;
63782;SDS011;49925;52.522;5.732;2024-01-07T06:39:27;16.58;;;8.73;;
63782;SDS011;49925;52.522;5.732;2024-01-07T06:41:54;18.10;;;8.65;;
63782;SDS011;49925;52.522;5.732;2024-01-07T06:44:21;21.25;;;8.70;;
63782;SDS011;49925;52.522;5.732;2024-01-07T06:46:49;15.18;;;7.80;;
63782;SDS011;49925;52.522;5.732;2024-01-07T06:49:16;16.25;;;7.97;;
63782;SDS011;49925;52.522;5.732;2024-01-07T06:51:44;15.05;;;7.38;;
63782;SDS011;49925;52.522;5.732;2024-01-07T06:54:11;14.82;;;7.13;;
63782;SDS011;49925;52.522;5.732;2024-01-07T06:56:40;14.65;;;7.70;;
63782;SDS011;49925;52.522;5.732;2024-01-07T06:59:08;14.40;;;7.03;;
63782;SDS011;49925;52.522;5.732;2024-01-07T07:01:36;11.50;;;6.40;;
63782;SDS011;49925;52.522;5.732;2024-01-07T07:04:05;16.77;;;6.97;;
63782;SDS011;49925;52.522;5.732;2024-01-07T07:06:32;29.55;;;7.47;;
63782;SDS011;49925;52.522;5.732;2024-01-07T07:08:59;14.25;;;6.88;;
63782;SDS011;49925;52.522;5.732;2024-01-07T07:11:27;13.18;;;7.03;;
63782;SDS011;49925;52.522;5.732;2024-01-07T07:13:54;15.68;;;7.47;;
63782;SDS011;49925;52.522;5.732;2024-01-07T07:16:21;16.38;;;6.90;;
63782;SDS011;49925;52.522;5.732;2024-01-07T07:18:49;14.35;;;6.80;;
63782;SDS011;49925;52.522;5.732;2024-01-07T07:21:16;13.63;;;6.65;;
63782;SDS011;49925;52.522;5.732;2024-01-07T07:23:43;12.25;;;6.40;;
63782;SDS011;49925;52.522;5.732;2024-01-07T07:26:10;13.02;;;6.43;;
63782;SDS011;49925;52.522;5.732;2024-01-07T07:28:38;15.60;;;6.15;;
63782;SDS011;49925;52.522;5.732;2024-01-07T07:31:05;11.80;;;5.93;;
63782;SDS011;49925;52.522;5.732;2024-01-07T07:33:32;13.38;;;6.00;;
63782;SDS011;49925;52.522;5.732;2024-01-07T07:36:00;9.88;;;5.05;;
63782;SDS011;49925;52.522;5.732;2024-01-07T07:38:27;8.95;;;5.07;;
63782;SDS011;49925;52.522;5.732;2024-01-07T07:40:54;10.50;;;5.20;;
63782;SDS011;49925;52.522;5.732;2024-01-07T07:43:22;15.15;;;4.95;;
63782;SDS011;49925;52.522;5.732;2024-01-07T07:45:49;9.25;;;4.85;;
63782;SDS011;49925;52.522;5.732;2024-01-07T07:55:43;11.82;;;4.70;;
63782;SDS011;49925;52.522;5.732;2024-01-07T07:58:10;12.15;;;4.90;;
63782;SDS011;49925;52.522;5.732;2024-01-07T08:00:38;14.85;;;4.63;;
63782;SDS011;49925;52.522;5.732;2024-01-07T08:03:05;10.18;;;4.88;;
63782;SDS011;49925;52.522;5.732;2024-01-07T08:05:32;10.10;;;4.75;;
63782;SDS011;49925;52.522;5.732;2024-01-07T08:08:00;11.43;;;4.65;;
63782;SDS011;49925;52.522;5.732;2024-01-07T08:10:27;10.15;;;4.78;;
63782;SDS011;49925;52.522;5.732;2024-01-07T08:12:55;10.80;;;4.78;;
63782;SDS011;49925;52.522;5.732;2024-01-07T08:15:22;8.27;;;3.95;;
63782;SDS011;49925;52.522;5.732;2024-01-07T08:17:49;8.73;;;4.30;;
63782;SDS011;49925;52.522;5.732;2024-01-07T08:20:18;11.18;;;4.72;;
63782;SDS011;49925;52.522;5.732;2024-01-07T08:22:46;8.38;;;4.60;;
63782;SDS011;49925;52.522;5.732;2024-01-07T08:25:13;7.68;;;4.10;;
63782;SDS011;49925;52.522;5.732;2024-01-07T08:27:41;11.45;;;4.20;;
63782;SDS011;49925;52.522;5.732;2024-01-07T08:30:10;9.05;;;4.55;;
63782;SDS011;49925;52.522;5.732;2024-01-07T08:32:45;8.23;;;4.13;;
63782;SDS011;49925;52.522;5.732;2024-01-07T08:35:12;9.60;;;4.45;;
63782;SDS011;49925;52.522;5.732;2024-01-07T08:37:44;9.95;;;4.07;;
63782;SDS011;49925;52.522;5.732;2024-01-07T08:40:11;12.48;;;3.97;;
63782;SDS011;49925;52.522;5.732;2024-01-07T08:42:40;10.85;;;4.43;;
63782;SDS011;49925;52.522;5.732;2024-01-07T08:45:08;6.50;;;3.47;;
63782;SDS011;49925;52.522;5.732;2024-01-07T08:47:35;10.20;;;4.07;;
63782;SDS011;49925;52.522;5.732;2024-01-07T08:50:08;7.22;;;3.58;;
63782;SDS011;49925;52.522;5.732;2024-01-07T08:52:35;8.98;;;3.63;;
63782;SDS011;49925;52.522;5.732;2024-01-07T08:55:02;11.65;;;3.80;;
63782;SDS011;49925;52.522;5.732;2024-01-07T08:57:32;10.80;;;3.85;;
63782;SDS011;49925;52.522;5.732;2024-01-07T08:59:59;10.85;;;3.92;;
63782;SDS011;49925;52.522;5.732;2024-01-07T09:02:27;7.07;;;3.60;;
63782;SDS011;49925;52.522;5.732;2024-01-07T09:04:54;8.00;;;3.95;;
63782;SDS011;49925;52.522;5.732;2024-01-07T09:07:21;7.07;;;3.80;;
63782;SDS011;49925;52.522;5.732;2024-01-07T09:09:53;14.18;;;5.30;;
63782;SDS011;49925;52.522;5.732;2024-01-07T09:12:27;8.82;;;3.53;;
63782;SDS011;49925;52.522;5.732;2024-01-07T09:14:55;8.05;;;3.40;;
63782;SDS011;49925;52.522;5.732;2024-01-07T09:17:22;9.70;;;4.20;;
63782;SDS011;49925;52.522;5.732;2024-01-07T09:19:49;7.50;;;3.92;;
63782;SDS011;49925;52.522;5.732;2024-01-07T09:22:16;9.68;;;3.95;;
63782;SDS011;49925;52.522;5.732;2024-01-07T09:24:45;13.60;;;4.20;;
63782;SDS011;49925;52.522;5.732;2024-01-07T09:27:12;10.38;;;3.70;;
63782;SDS011;49925;52.522;5.732;2024-01-07T09:29:40;10.23;;;3.67;;
63782;SDS011;49925;52.522;5.732;2024-01-07T09:32:08;7.07;;;3.13;;
63782;SDS011;49925;52.522;5.732;2024-01-07T09:34:37;7.75;;;3.58;;
63782;SDS011;49925;52.522;5.732;2024-01-07T09:37:09;8.10;;;3.10;;
63782;SDS011;49925;52.522;5.732;2024-01-07T09:39:39;10.27;;;3.30;;
63782;SDS011;49925;52.522;5.732;2024-01-07T09:42:13;13.82;;;3.58;;
63782;SDS011;49925;52.522;5.732;2024-01-07T09:44:42;6.68;;;3.30;;
63782;SDS011;49925;52.522;5.732;2024-01-07T09:47:13;8.32;;;3.58;;
63782;SDS011;49925;52.522;5.732;2024-01-07T09:49:41;6.18;;;3.33;;
63782;SDS011;49925;52.522;5.732;2024-01-07T09:52:12;5.60;;;3.30;;
63782;SDS011;49925;52.522;5.732;2024-01-07T09:54:44;6.78;;;2.95;;
63782;SDS011;49925;52.522;5.732;2024-01-07T10:00:01;7.80;;;3.00;;
63782;SDS011;49925;52.522;5.732;2024-01-07T10:02:31;6.67;;;3.23;;
63782;SDS011;49925;52.522;5.732;2024-01-07T10:04:58;8.32;;;3.15;;
63782;SDS011;49925;52.522;5.732;2024-01-07T10:07:27;8.98;;;3.28;;
63782;SDS011;49925;52.522;5.732;2024-01-07T10:09:54;5.70;;;2.80;;
63782;SDS011;49925;52.522;5.732;2024-01-07T10:12:22;7.00;;;2.72;;
63782;SDS011;49925;52.522;5.732;2024-01-07T10:14:50;6.85;;;2.95;;
63782;SDS011;49925;52.522;5.732;2024-01-07T10:17:17;6.60;;;2.97;;
63782;SDS011;49925;52.522;5.732;2024-01-07T10:19:45;5.95;;;2.65;;
63782;SDS011;49925;52.522;5.732;2024-01-07T10:22:12;9.60;;;3.08;;
63782;SDS011;49925;52.522;5.732;2024-01-07T10:24:42;6.13;;;2.95;;
63782;SDS011;49925;52.522;5.732;2024-01-07T10:27:10;6.00;;;3.22;;
63782;SDS011;49925;52.522;5.732;2024-01-07T10:29:40;6.50;;;2.55;;
63782;SDS011;49925;52.522;5.732;2024-01-07T10:32:07;5.93;;;2.70;;
63782;SDS011;49925;52.522;5.732;2024-01-07T10:34:35;8.70;;;2.90;;
63782;SDS011;49925;52.522;5.732;2024-01-07T10:37:04;8.85;;;3.00;;
63782;SDS011;49925;52.522;5.732;2024-01-07T10:39:32;5.28;;;2.95;;
63782;SDS011;49925;52.522;5.732;2024-01-07T10:42:01;7.35;;;2.88;;
63782;SDS011;49925;52.522;5.732;2024-01-07T10:44:30;9.23;;;2.70;;
63782;SDS011;49925;52.522;5.732;2024-01-07T10:46:58;5.78;;;2.55;;
63782;SDS011;49925;52.522;5.732;2024-01-07T10:49:29;5.22;;;2.30;;
63782;SDS011;49925;52.522;5.732;2024-01-07T10:54:32;7.38;;;2.70;;
63782;SDS011;49925;52.522;5.732;2024-01-07T10:59:58;7.55;;;2.53;;
63782;SDS011;49925;52.522;5.732;2024-01-07T11:02:27;5.50;;;2.58;;
63782;SDS011;49925;52.522;5.732;2024-01-07T11:05:03;8.23;;;2.55;;
63782;SDS011;49925;52.522;5.732;2024-01-07T11:07:44;4.20;;;2.50;;
63782;SDS011;49925;52.522;5.732;2024-01-07T11:10:18;7.32;;;2.28;;
63782;SDS011;49925;52.522;5.732;2024-01-07T11:13:00;5.45;;;2.70;;
63782;SDS011;49925;52.522;5.732;2024-01-07T11:18:26;9.68;;;2.80;;
63782;SDS011;49925;52.522;5.732;2024-01-07T11:20:59;7.85;;;2.80;;
63782;SDS011;49925;52.522;5.732;2024-01-07T11:23:30;5.32;;;2.70;;
63782;SDS011;49925;52.522;5.732;2024-01-07T11:26:06;5.13;;;2.70;;
63782;SDS011;49925;52.522;5.732;2024-01-07T11:28:42;4.85;;;2.85;;
63782;SDS011;49925;52.522;5.732;2024-01-07T11:33:48;4.95;;;2.80;;
63782;SDS011;49925;52.522;5.732;2024-01-07T11:36:19;14.32;;;2.78;;
63782;SDS011;49925;52.522;5.732;2024-01-07T11:38:49;5.55;;;2.50;;
63782;SDS011;49925;52.522;5.732;2024-01-07T11:41:20;7.70;;;3.00;;
63782;SDS011;49925;52.522;5.732;2024-01-07T11:43:54;4.78;;;2.58;;
63782;SDS011;49925;52.522;5.732;2024-01-07T11:46:31;6.38;;;2.80;;
63782;SDS011;49925;52.522;5.732;2024-01-07T11:48:59;5.90;;;2.55;;
63782;SDS011;49925;52.522;5.732;2024-01-07T11:53:58;9.57;;;2.80;;
63782;SDS011;49925;52.522;5.732;2024-01-07T11:56:27;5.00;;;2.67;;
63782;SDS011;49925;52.522;5.732;2024-01-07T11:58:55;5.53;;;2.53;;
63782;SDS011;49925;52.522;5.732;2024-01-07T12:01:23;5.05;;;2.40;;
63782;SDS011;49925;52.522;5.732;2024-01-07T12:03:53;4.45;;;2.50;;
63782;SDS011;49925;52.522;5.732;2024-01-07T12:06:21;4.93;;;2.50;;
63782;SDS011;49925;52.522;5.732;2024-01-07T12:08:48;4.65;;;2.58;;
63782;SDS011;49925;52.522;5.732;2024-01-07T12:11:16;10.00;;;2.45;;
63782;SDS011;49925;52.522;5.732;2024-01-07T12:13:43;9.32;;;2.63;;
63782;SDS011;49925;52.522;5.732;2024-01-07T12:16:11;6.68;;;2.70;;
63782;SDS011;49925;52.522;5.732;2024-01-07T12:18:39;7.05;;;2.65;;
63782;SDS011;49925;52.522;5.732;2024-01-07T12:21:07;3.65;;;2.20;;
63782;SDS011;49925;52.522;5.732;2024-01-07T12:23:37;5.72;;;2.40;;
63782;SDS011;49925;52.522;5.732;2024-01-07T12:26:09;3.42;;;2.20;;
63782;SDS011;49925;52.522;5.732;2024-01-07T12:28:38;6.72;;;2.78;;
63782;SDS011;49925;52.522;5.732;2024-01-07T12:31:05;8.15;;;2.58;;
63782;SDS011;49925;52.522;5.732;2024-01-07T12:33:33;12.27;;;2.72;;
63782;SDS011;49925;52.522;5.732;2024-01-07T12:36:04;6.30;;;2.22;;
63782;SDS011;49925;52.522;5.732;2024-01-07T12:38:36;5.00;;;2.47;;
63782;SDS011;49925;52.522;5.732;2024-01-07T12:41:04;4.20;;;2.50;;
63782;SDS011;49925;52.522;5.732;2024-01-07T12:43:32;5.70;;;2.33;;
63782;SDS011;49925;52.522;5.732;2024-01-07T12:45:59;6.07;;;2.55;;
63782;SDS011;49925;52.522;5.732;2024-01-07T12:48:32;11.18;;;2.60;;
63782;SDS011;49925;52.522;5.732;2024-01-07T12:51:00;9.63;;;2.50;;
63782;SDS011;49925;52.522;5.732;2024-01-07T12:53:28;4.97;;;2.60;;
63782;SDS011;49925;52.522;5.732;2024-01-07T12:55:56;9.60;;;2.78;;
63782;SDS011;49925;52.522;5.732;2024-01-07T12:58:23;5.65;;;2.63;;
63782;SDS011;49925;52.522;5.732;2024-01-07T13:00:51;3.83;;;2.58;;
63782;SDS011;49925;52.522;5.732;2024-01-07T13:03:18;8.60;;;2.75;;
63782;SDS011;49925;52.522;5.732;2024-01-07T13:05:47;8.75;;;2.80;;
63782;SDS011;49925;52.522;5.732;2024-01-07T13:08:18;5.75;;;3.10;;
63782;SDS011;49925;52.522;5.732;2024-01-07T13:10:47;4.18;;;2.67;;
63782;SDS011;49925;52.522;5.732;2024-01-07T13:13:15;5.93;;;3.00;;
63782;SDS011;49925;52.522;5.732;2024-01-07T13:15:43;6.15;;;2.55;;
63782;SDS011;49925;52.522;5.732;2024-01-07T13:18:11;4.63;;;2.70;;
63782;SDS011;49925;52.522;5.732;2024-01-07T13:20:39;7.53;;;2.97;;
63782;SDS011;49925;52.522;5.732;2024-01-07T13:23:07;4.15;;;2.58;;
63782;SDS011;49925;52.522;5.732;2024-01-07T13:25:34;8.68;;;2.95;;
63782;SDS011;49925;52.522;5.732;2024-01-07T13:28:01;4.43;;;2.55;;
63782;SDS011;49925;52.522;5.732;2024-01-07T13:30:29;11.85;;;3.00;;
63782;SDS011;49925;52.522;5.732;2024-01-07T13:32:56;8.68;;;2.95;;
63782;SDS011;49925;52.522;5.732;2024-01-07T13:35:26;9.25;;;2.70;;
63782;SDS011;49925;52.522;5.732;2024-01-07T13:37:53;4.50;;;2.30;;
63782;SDS011;49925;52.522;5.732;2024-01-07T13:40:21;10.15;;;3.20;;
63782;SDS011;49925;52.522;5.732;2024-01-07T13:42:48;6.82;;;2.55;;
63782;SDS011;49925;52.522;5.732;2024-01-07T13:45:17;12.13;;;2.83;;
63782;SDS011;49925;52.522;5.732;2024-01-07T13:47:49;5.68;;;2.70;;
63782;SDS011;49925;52.522;5.732;2024-01-07T13:50:17;5.28;;;2.60;;
63782;SDS011;49925;52.522;5.732;2024-01-07T13:52:44;10.02;;;2.75;;
63782;SDS011;49925;52.522;5.732;2024-01-07T13:55:12;7.63;;;2.72;;
63782;SDS011;49925;52.522;5.732;2024-01-07T13:57:40;4.03;;;2.40;;
63782;SDS011;49925;52.522;5.732;2024-01-07T14:00:08;8.23;;;2.55;;
63782;SDS011;49925;52.522;5.732;2024-01-07T14:02:37;5.53;;;2.40;;
63782;SDS011;49925;52.522;5.732;2024-01-07T14:05:07;5.32;;;2.72;;
63782;SDS011;49925;52.522;5.732;2024-01-07T14:07:37;8.00;;;2.67;;
63782;SDS011;49925;52.522;5.732;2024-01-07T14:10:05;4.93;;;2.53;;
63782;SDS011;49925;52.522;5.732;2024-01-07T14:12:34;11.07;;;4.55;;
63782;SDS011;49925;52.522;5.732;2024-01-07T14:15:01;4.13;;;2.60;;
63782;SDS011;49925;52.522;5.732;2024-01-07T14:17:29;5.15;;;2.40;;
63782;SDS011;49925;52.522;5.732;2024-01-07T14:19:57;6.18;;;2.97;;
63782;SDS011;49925;52.522;5.732;2024-01-07T14:22:24;7.15;;;2.72;;
63782;SDS011;49925;52.522;5.732;2024-01-07T14:24:51;6.35;;;2.75;;
63782;SDS011;49925;52.522;5.732;2024-01-07T14:27:19;7.43;;;3.33;;
63782;SDS011;49925;52.522;5.732;2024-01-07T14:29:46;8.50;;;2.80;;
63782;SDS011;49925;52.522;5.732;2024-01-07T14:32:14;7.55;;;3.17;;
63782;SDS011;49925;52.522;5.732;2024-01-07T14:34:41;6.47;;;2.88;;
63782;SDS011;49925;52.522;5.732;2024-01-07T14:37:10;5.03;;;2.78;;
63782;SDS011;49925;52.522;5.732;2024-01-07T14:39:38;7.78;;;2.95;;
63782;SDS011;49925;52.522;5.732;2024-01-07T14:42:06;6.32;;;2.70;;
63782;SDS011;49925;52.522;5.732;2024-01-07T14:44:33;6.20;;;3.00;;
63782;SDS011;49925;52.522;5.732;2024-01-07T14:49:42;7.35;;;3.28;;
63782;SDS011;49925;52.522;5.732;2024-01-07T14:52:10;8.65;;;3.60;;
63782;SDS011;49925;52.522;5.732;2024-01-07T14:54:38;14.45;;;3.88;;
63782;SDS011;49925;52.522;5.732;2024-01-07T14:57:06;12.57;;;3.42;;
63782;SDS011;49925;52.522;5.732;2024-01-07T14:59:35;5.75;;;3.38;;
63782;SDS011;49925;52.522;5.732;2024-01-07T15:02:02;10.10;;;3.47;;
63782;SDS011;49925;52.522;5.732;2024-01-07T15:04:33;10.32;;;3.70;;
63782;SDS011;49925;52.522;5.732;2024-01-07T15:07:01;6.55;;;3.38;;
63782;SDS011;49925;52.522;5.732;2024-01-07T15:09:28;10.32;;;3.88;;
63782;SDS011;49925;52.522;5.732;2024-01-07T15:11:56;8.27;;;3.90;;
63782;SDS011;49925;52.522;5.732;2024-01-07T15:14:23;10.73;;;3.55;;
63782;SDS011;49925;52.522;5.732;2024-01-07T15:16:50;13.18;;;3.65;;
63782;SDS011;49925;52.522;5.732;2024-01-07T15:19:21;8.43;;;3.67;;
63782;SDS011;49925;52.522;5.732;2024-01-07T15:21:49;9.10;;;4.20;;
63782;SDS011;49925;52.522;5.732;2024-01-07T15:24:17;8.63;;;4.50;;
63782;SDS011;49925;52.522;5.732;2024-01-07T15:26:44;11.65;;;4.32;;
63782;SDS011;49925;52.522;5.732;2024-01-07T15:29:12;11.00;;;4.93;;
63782;SDS011;49925;52.522;5.732;2024-01-07T15:31:40;9.40;;;4.28;;
63782;SDS011;49925;52.522;5.732;2024-01-07T15:34:08;10.13;;;4.47;;
63782;SDS011;49925;52.522;5.732;2024-01-07T15:36:36;11.25;;;5.18;;
63782;SDS011;49925;52.522;5.732;2024-01-07T15:39:04;14.15;;;4.57;;
63782;SDS011;49925;52.522;5.732;2024-01-07T15:41:31;12.75;;;4.35;;
63782;SDS011;49925;52.522;5.732;2024-01-07T15:43:58;12.30;;;4.22;;
63782;SDS011;49925;52.522;5.732;2024-01-07T15:46:27;13.70;;;4.80;;
63782;SDS011;49925;52.522;5.732;2024-01-07T15:48:54;12.27;;;4.28;;
63782;SDS011;49925;52.522;5.732;2024-01-07T15:51:22;10.40;;;4.57;;
63782;SDS011;49925;52.522;5.732;2024-01-07T15:53:49;6.65;;;3.67;;
63782;SDS011;49925;52.522;5.732;2024-01-07T15:56:17;9.52;;;4.18;;
63782;SDS011;49925;52.522;5.732;2024-01-07T15:58:46;8.65;;;4.03;;
63782;SDS011;49925;52.522;5.732;2024-01-07T16:01:13;8.52;;;4.60;;
63782;SDS011;49925;52.522;5.732;2024-01-07T16:03:41;9.63;;;4.25;;
63782;SDS011;49925;52.522;5.732;2024-01-07T16:06:09;9.43;;;4.57;;
63782;SDS011;49925;52.522;5.732;2024-01-07T16:08:36;9.60;;;4.30;;
63782;SDS011;49925;52.522;5.732;2024-01-07T16:11:04;12.63;;;4.97;;
63782;SDS011;49925;52.522;5.732;2024-01-07T16:13:31;17.00;;;6.47;;
63782;SDS011;49925;52.522;5.732;2024-01-07T16:16:01;16.33;;;4.95;;
63782;SDS011;49925;52.522;5.732;2024-01-07T16:18:31;10.95;;;5.15;;
63782;SDS011;49925;52.522;5.732;2024-01-07T16:20:58;11.13;;;6.45;;
63782;SDS011;49925;52.522;5.732;2024-01-07T16:23:25;15.63;;;5.82;;
63782;SDS011;49925;52.522;5.732;2024-01-07T16:25:54;12.63;;;5.28;;
63782;SDS011;49925;52.522;5.732;2024-01-07T16:28:21;12.55;;;4.80;;
63782;SDS011;49925;52.522;5.732;2024-01-07T16:30:49;17.17;;;5.13;;
63782;SDS011;49925;52.522;5.732;2024-01-07T16:33:17;11.05;;;5.07;;
63782;SDS011;49925;52.522;5.732;2024-01-07T17:20:08;15.95;;;8.45;;
63782;SDS011;49925;52.522;5.732;2024-01-07T17:22:36;14.73;;;6.93;;
63782;SDS011;49925;52.522;5.732;2024-01-07T17:25:04;13.60;;;6.85;;
63782;SDS011;49925;52.522;5.732;2024-01-07T17:27:34;22.35;;;11.30;;
63782;SDS011;49925;52.522;5.732;2024-01-07T17:30:02;12.25;;;6.05;;
63782;SDS011;49925;52.522;5.732;2024-01-07T17:32:29;18.48;;;5.35;;
63782;SDS011;49925;52.522;5.732;2024-01-07T17:34:57;13.10;;;6.10;;
63782;SDS011;49925;52.522;5.732;2024-01-07T17:37:24;16.70;;;6.43;;
63782;SDS011;49925;52.522;5.732;2024-01-07T17:39:52;18.23;;;6.50;;
63782;SDS011;49925;52.522;5.732;2024-01-07T17:42:20;15.93;;;9.35;;
63782;SDS011;49925;52.522;5.732;2024-01-07T17:44:48;15.82;;;8.93;;
63782;SDS011;49925;52.522;5.732;2024-01-07T17:47:15;11.57;;;6.38;;
63782;SDS011;49925;52.522;5.732;2024-01-07T17:49:46;16.90;;;6.82;;
63782;SDS011;49925;52.522;5.732;2024-01-07T17:52:13;16.52;;;5.78;;
63782;SDS011;49925;52.522;5.732;2024-01-07T17:54:40;12.18;;;5.80;;
63782;SDS011;49925;52.522;5.732;2024-01-07T17:57:08;12.60;;;5.68;;
63782;SDS011;49925;52.522;5.732;2024-01-07T17:59:35;14.77;;;5.95;;
63782;SDS011;49925;52.522;5.732;2024-01-07T18:02:02;12.73;;;4.88;;
63782;SDS011;49925;52.522;5.732;2024-01-07T18:04:33;14.43;;;6.03;;
63782;SDS011;49925;52.522;5.732;2024-01-07T18:07:01;13.32;;;6.28;;
63782;SDS011;49925;52.522;5.732;2024-01-07T18:09:28;18.85;;;6.40;;
63782;SDS011;49925;52.522;5.732;2024-01-07T18:11:56;18.60;;;6.13;;
63782;SDS011;49925;52.522;5.732;2024-01-07T18:14:23;17.75;;;6.47;;
63782;SDS011;49925;52.522;5.732;2024-01-07T18:16:50;13.57;;;6.72;;
63782;SDS011;49925;52.522;5.732;2024-01-07T18:19:18;13.15;;;6.28;;
63782;SDS011;49925;52.522;5.732;2024-01-07T18:21:45;14.32;;;5.95;;
63782;SDS011;49925;52.522;5.732;2024-01-07T18:24:14;15.73;;;6.50;;
63782;SDS011;49925;52.522;5.732;2024-01-07T18:26:41;20.48;;;8.88;;
63782;SDS011;49925;52.522;5.732;2024-01-07T18:29:09;19.10;;;5.90;;
63782;SDS011;49925;52.522;5.732;2024-01-07T18:31:41;13.60;;;5.15;;
63782;SDS011;49925;52.522;5.732;2024-01-07T18:34:09;18.35;;;5.40;;
63782;SDS011;49925;52.522;5.732;2024-01-07T18:36:37;12.38;;;4.82;;
63782;SDS011;49925;52.522;5.732;2024-01-07T18:39:04;16.35;;;5.20;;
63782;SDS011;49925;52.522;5.732;2024-01-07T18:41:34;11.25;;;4.68;;
63782;SDS011;49925;52.522;5.732;2024-01-07T18:44:02;10.18;;;4.55;;
63782;SDS011;49925;52.522;5.732;2024-01-07T18:49:02;10.13;;;4.78;;
63782;SDS011;49925;52.522;5.732;2024-01-07T18:51:30;10.27;;;4.60;;
63782;SDS011;49925;52.522;5.732;2024-01-07T18:53:57;11.38;;;4.78;;
63782;SDS011;49925;52.522;5.732;2024-01-07T18:56:25;9.52;;;4.95;;
63782;SDS011;49925;52.522;5.732;2024-01-07T18:58:53;13.25;;;4.85;;
63782;SDS011;49925;52.522;5.732;2024-01-07T19:01:22;13.68;;;4.97;;
63782;SDS011;49925;52.522;5.732;2024-01-07T19:03:51;13.10;;;5.72;;
63782;SDS011;49925;52.522;5.732;2024-01-07T19:06:18;12.50;;;4.50;;
63782;SDS011;49925;52.522;5.732;2024-01-07T19:08:45;11.75;;;6.10;;
63782;SDS011;49925;52.522;5.732;2024-01-07T19:11:14;10.68;;;4.97;;
63782;SDS011;49925;52.522;5.732;2024-01-07T19:13:41;8.48;;;4.10;;
63782;SDS011;49925;52.522;5.732;2024-01-07T19:16:09;11.80;;;4.90;;
63782;SDS011;49925;52.522;5.732;2024-01-07T19:18:36;12.05;;;5.25;;
63782;SDS011;49925;52.522;5.732;2024-01-07T19:21:04;12.90;;;4.30;;
63782;SDS011;49925;52.522;5.732;2024-01-07T19:26:06;6.68;;;3.80;;
63782;SDS011;49925;52.522;5.732;2024-01-07T19:43:24;14.40;;;5.13;;
63782;SDS011;49925;52.522;5.732;2024-01-07T19:45:51;14.60;;;4.75;;
63782;SDS011;49925;52.522;5.732;2024-01-07T19:48:19;11.07;;;4.85;;
63782;SDS011;49925;52.522;5.732;2024-01-07T19:50:46;12.02;;;4.60;;
63782;SDS011;49925;52.522;5.732;2024-01-07T19:53:13;13.05;;;4.35;;
63782;SDS011;49925;52.522;5.732;2024-01-07T19:55:54;8.00;;;4.28;;
63782;SDS011;49925;52.522;5.732;2024-01-07T19:58:22;10.85;;;4.43;;
63782;SDS011;49925;52.522;5.732;2024-01-07T20:00:49;7.85;;;4.38;;
63782;SDS011;49925;52.522;5.732;2024-01-07T20:03:17;9.82;;;4.85;;
63782;SDS011;49925;52.522;5.732;2024-01-07T20:05:45;12.02;;;4.93;;
63782;SDS011;49925;52.522;5.732;2024-01-07T20:08:12;13.25;;;4.88;;
63782;SDS011;49925;52.522;5.732;2024-01-07T20:10:41;9.60;;;4.93;;
63782;SDS011;49925;52.522;5.732;2024-01-07T20:13:08;12.35;;;6.05;;
63782;SDS011;49925;52.522;5.732;2024-01-07T20:23:02;11.68;;;5.05;;
63782;SDS011;49925;52.522;5.732;2024-01-07T20:25:30;12.15;;;4.97;;
63782;SDS011;49925;52.522;5.732;2024-01-07T20:27:57;11.27;;;5.40;;
63782;SDS011;49925;52.522;5.732;2024-01-07T20:30:24;9.45;;;4.80;;
63782;SDS011;49925;52.522;5.732;2024-01-07T20:32:51;11.02;;;4.57;;
63782;SDS011;49925;52.522;5.732;2024-01-07T20:35:19;8.43;;;4.60;;
63782;SDS011;49925;52.522;5.732;2024-01-07T20:37:46;15.95;;;5.60;;
63782;SDS011;49925;52.522;5.732;2024-01-07T20:40:13;11.45;;;5.28;;
63782;SDS011;49925;52.522;5.732;2024-01-07T20:42:40;11.93;;;4.95;;
63782;SDS011;49925;52.522;5.732;2024-01-07T20:45:09;14.60;;;4.47;;
63782;SDS011;49925;52.522;5.732;2024-01-07T20:47:38;9.45;;;5.00;;
63782;SDS011;49925;52.522;5.732;2024-01-07T20:50:07;8.57;;;4.40;;
63782;SDS011;49925;52.522;5.732;2024-01-07T20:52:35;9.32;;;4.18;;
63782;SDS011;49925;52.522;5.732;2024-01-07T20:55:02;10.10;;;4.18;;